sensor_id;sensor_type;location;lat;lon;timestamp;P1;durP1;ratioP1;P2;durP2;ratioP2
51566;SDS011;37657;53.182;5.638;2023-04-06T00:01:02;13.43;;;12.07;;
51566;SDS011;37657;53.182;5.638;2023-04-06T00:03:27;11.80;;;10.38;;
51566;SDS011;37657;53.182;5.638;2023-04-06T00:05:53;10.57;;;9.55;;
51566;SDS011;37657;53.182;5.638;2023-04-06T00:08:18;12.77;;;10.15;;
51566;SDS011;37657;53.182;5.638;2023-04-06T00:10:46;15.50;;;11.93;;
51566;SDS011;37657;53.182;5.638;2023-04-06T00:13:11;10.32;;;8.73;;
51566;SDS011;37657;53.182;5.638;2023-04-06T00:15:37;10.85;;;9.77;;
51566;SDS011;37657;53.182;5.638;2023-04-06T00:18:03;11.85;;;10.68;;
51566;SDS011;37657;53.182;5.638;2023-04-06T00:20:28;12.38;;;10.25;;
51566;SDS011;37657;53.182;5.638;2023-04-06T00:22:54;12.88;;;8.80;;
51566;SDS011;37657;53.182;5.638;2023-04-06T00:25:19;10.38;;;8.45;;
51566;SDS011;37657;53.182;5.638;2023-04-06T00:27:45;8.77;;;7.95;;
51566;SDS011;37657;53.182;5.638;2023-04-06T00:30:11;9.68;;;8.63;;
51566;SDS011;37657;53.182;5.638;2023-04-06T00:32:36;11.75;;;10.57;;
51566;SDS011;37657;53.182;5.638;2023-04-06T00:35:05;10.35;;;9.32;;
51566;SDS011;37657;53.182;5.638;2023-04-06T00:37:31;12.20;;;10.27;;
51566;SDS011;37657;53.182;5.638;2023-04-06T00:39:57;14.63;;;8.88;;
51566;SDS011;37657;53.182;5.638;2023-04-06T00:42:23;17.15;;;11.57;;
51566;SDS011;37657;53.182;5.638;2023-04-06T00:44:55;9.63;;;8.48;;
51566;SDS011;37657;53.182;5.638;2023-04-06T00:47:22;10.38;;;8.43;;
51566;SDS011;37657;53.182;5.638;2023-04-06T00:49:50;10.48;;;9.52;;
51566;SDS011;37657;53.182;5.638;2023-04-06T00:52:15;9.93;;;8.02;;
51566;SDS011;37657;53.182;5.638;2023-04-06T00:54:42;12.27;;;10.00;;
51566;SDS011;37657;53.182;5.638;2023-04-06T00:57:08;14.30;;;12.20;;
51566;SDS011;37657;53.182;5.638;2023-04-06T00:59:34;12.65;;;10.75;;
51566;SDS011;37657;53.182;5.638;2023-04-06T01:01:59;11.98;;;9.48;;
51566;SDS011;37657;53.182;5.638;2023-04-06T01:04:26;10.27;;;8.57;;
51566;SDS011;37657;53.182;5.638;2023-04-06T01:06:52;10.63;;;9.43;;
51566;SDS011;37657;53.182;5.638;2023-04-06T01:09:17;10.18;;;8.68;;
51566;SDS011;37657;53.182;5.638;2023-04-06T01:11:43;9.98;;;8.90;;
51566;SDS011;37657;53.182;5.638;2023-04-06T01:14:08;11.48;;;10.38;;
51566;SDS011;37657;53.182;5.638;2023-04-06T01:16:34;13.07;;;11.23;;
51566;SDS011;37657;53.182;5.638;2023-04-06T01:19:01;10.40;;;9.40;;
51566;SDS011;37657;53.182;5.638;2023-04-06T01:21:31;14.95;;;10.75;;
51566;SDS011;37657;53.182;5.638;2023-04-06T01:23:57;10.75;;;9.57;;
51566;SDS011;37657;53.182;5.638;2023-04-06T01:26:22;12.10;;;9.73;;
51566;SDS011;37657;53.182;5.638;2023-04-06T01:28:48;10.63;;;8.95;;
51566;SDS011;37657;53.182;5.638;2023-04-06T01:31:13;12.60;;;10.57;;
51566;SDS011;37657;53.182;5.638;2023-04-06T01:33:39;10.35;;;9.25;;
51566;SDS011;37657;53.182;5.638;2023-04-06T01:36:05;12.15;;;8.85;;
51566;SDS011;37657;53.182;5.638;2023-04-06T01:38:30;12.57;;;10.18;;
51566;SDS011;37657;53.182;5.638;2023-04-06T01:40:56;10.60;;;9.13;;
51566;SDS011;37657;53.182;5.638;2023-04-06T01:43:21;10.10;;;8.00;;
51566;SDS011;37657;53.182;5.638;2023-04-06T01:45:47;11.55;;;8.90;;
51566;SDS011;37657;53.182;5.638;2023-04-06T01:48:13;14.05;;;11.13;;
51566;SDS011;37657;53.182;5.638;2023-04-06T01:50:39;13.35;;;9.63;;
51566;SDS011;37657;53.182;5.638;2023-04-06T01:53:04;11.75;;;9.80;;
51566;SDS011;37657;53.182;5.638;2023-04-06T01:55:30;11.70;;;10.38;;
51566;SDS011;37657;53.182;5.638;2023-04-06T01:57:55;11.63;;;9.15;;
51566;SDS011;37657;53.182;5.638;2023-04-06T02:00:21;12.88;;;9.80;;
51566;SDS011;37657;53.182;5.638;2023-04-06T02:02:47;11.07;;;9.52;;
51566;SDS011;37657;53.182;5.638;2023-04-06T02:05:12;10.35;;;9.00;;
51566;SDS011;37657;53.182;5.638;2023-04-06T02:07:38;11.63;;;10.00;;
51566;SDS011;37657;53.182;5.638;2023-04-06T02:10:04;11.40;;;10.30;;
51566;SDS011;37657;53.182;5.638;2023-04-06T02:12:35;11.00;;;9.15;;
51566;SDS011;37657;53.182;5.638;2023-04-06T02:15:01;13.10;;;10.68;;
51566;SDS011;37657;53.182;5.638;2023-04-06T02:17:26;13.18;;;11.85;;
51566;SDS011;37657;53.182;5.638;2023-04-06T02:19:52;14.57;;;11.00;;
51566;SDS011;37657;53.182;5.638;2023-04-06T02:22:17;13.55;;;9.35;;
51566;SDS011;37657;53.182;5.638;2023-04-06T02:24:43;10.90;;;9.90;;
51566;SDS011;37657;53.182;5.638;2023-04-06T02:27:08;10.10;;;8.60;;
51566;SDS011;37657;53.182;5.638;2023-04-06T02:29:34;10.35;;;9.30;;
51566;SDS011;37657;53.182;5.638;2023-04-06T02:32:00;11.70;;;9.82;;
51566;SDS011;37657;53.182;5.638;2023-04-06T02:34:25;11.70;;;9.90;;
51566;SDS011;37657;53.182;5.638;2023-04-06T02:36:51;10.20;;;9.25;;
51566;SDS011;37657;53.182;5.638;2023-04-06T02:39:16;12.35;;;10.88;;
51566;SDS011;37657;53.182;5.638;2023-04-06T02:41:42;10.60;;;9.20;;
51566;SDS011;37657;53.182;5.638;2023-04-06T02:44:08;11.57;;;9.18;;
51566;SDS011;37657;53.182;5.638;2023-04-06T02:46:34;12.80;;;10.93;;
51566;SDS011;37657;53.182;5.638;2023-04-06T02:48:59;11.32;;;10.25;;
51566;SDS011;37657;53.182;5.638;2023-04-06T02:51:25;10.70;;;9.63;;
51566;SDS011;37657;53.182;5.638;2023-04-06T02:53:51;15.27;;;11.35;;
51566;SDS011;37657;53.182;5.638;2023-04-06T02:56:17;11.77;;;10.63;;
51566;SDS011;37657;53.182;5.638;2023-04-06T02:58:43;11.60;;;9.13;;
51566;SDS011;37657;53.182;5.638;2023-04-06T03:01:08;12.77;;;10.85;;
51566;SDS011;37657;53.182;5.638;2023-04-06T03:03:34;10.30;;;9.35;;
51566;SDS011;37657;53.182;5.638;2023-04-06T03:05:59;10.13;;;9.30;;
51566;SDS011;37657;53.182;5.638;2023-04-06T03:08:25;11.73;;;10.52;;
51566;SDS011;37657;53.182;5.638;2023-04-06T03:10:50;15.52;;;11.43;;
51566;SDS011;37657;53.182;5.638;2023-04-06T03:13:16;13.50;;;12.18;;
51566;SDS011;37657;53.182;5.638;2023-04-06T03:15:42;10.32;;;9.27;;
51566;SDS011;37657;53.182;5.638;2023-04-06T03:18:07;12.07;;;10.68;;
51566;SDS011;37657;53.182;5.638;2023-04-06T03:20:33;12.55;;;10.00;;
51566;SDS011;37657;53.182;5.638;2023-04-06T03:22:59;12.70;;;10.95;;
51566;SDS011;37657;53.182;5.638;2023-04-06T03:25:25;12.85;;;11.05;;
51566;SDS011;37657;53.182;5.638;2023-04-06T03:27:50;11.93;;;10.50;;
51566;SDS011;37657;53.182;5.638;2023-04-06T03:30:16;13.35;;;12.02;;
51566;SDS011;37657;53.182;5.638;2023-04-06T03:32:44;11.25;;;9.60;;
51566;SDS011;37657;53.182;5.638;2023-04-06T03:35:10;11.30;;;10.15;;
51566;SDS011;37657;53.182;5.638;2023-04-06T03:37:35;14.93;;;11.00;;
51566;SDS011;37657;53.182;5.638;2023-04-06T03:40:01;13.32;;;10.85;;
51566;SDS011;37657;53.182;5.638;2023-04-06T03:42:27;11.70;;;10.43;;
51566;SDS011;37657;53.182;5.638;2023-04-06T03:44:53;12.82;;;11.63;;
51566;SDS011;37657;53.182;5.638;2023-04-06T03:47:19;11.02;;;9.93;;
51566;SDS011;37657;53.182;5.638;2023-04-06T03:49:44;15.93;;;14.23;;
51566;SDS011;37657;53.182;5.638;2023-04-06T03:52:10;11.55;;;10.50;;
51566;SDS011;37657;53.182;5.638;2023-04-06T03:54:36;16.23;;;12.65;;
51566;SDS011;37657;53.182;5.638;2023-04-06T03:57:01;12.07;;;9.48;;
51566;SDS011;37657;53.182;5.638;2023-04-06T03:59:27;17.25;;;11.32;;
51566;SDS011;37657;53.182;5.638;2023-04-06T04:01:53;12.02;;;10.88;;
51566;SDS011;37657;53.182;5.638;2023-04-06T04:04:18;12.98;;;10.75;;
51566;SDS011;37657;53.182;5.638;2023-04-06T04:06:44;12.30;;;9.63;;
51566;SDS011;37657;53.182;5.638;2023-04-06T04:09:10;12.98;;;11.60;;
51566;SDS011;37657;53.182;5.638;2023-04-06T04:11:35;17.77;;;12.63;;
51566;SDS011;37657;53.182;5.638;2023-04-06T04:14:01;13.15;;;10.23;;
51566;SDS011;37657;53.182;5.638;2023-04-06T04:16:26;13.57;;;11.88;;
51566;SDS011;37657;53.182;5.638;2023-04-06T04:18:52;12.35;;;11.07;;
51566;SDS011;37657;53.182;5.638;2023-04-06T04:21:17;11.80;;;10.50;;
51566;SDS011;37657;53.182;5.638;2023-04-06T04:23:43;14.10;;;12.60;;
51566;SDS011;37657;53.182;5.638;2023-04-06T04:26:08;18.50;;;12.75;;
51566;SDS011;37657;53.182;5.638;2023-04-06T04:28:35;15.18;;;11.77;;
51566;SDS011;37657;53.182;5.638;2023-04-06T04:31:00;13.35;;;11.95;;
51566;SDS011;37657;53.182;5.638;2023-04-06T04:33:26;14.00;;;12.52;;
51566;SDS011;37657;53.182;5.638;2023-04-06T04:35:51;13.38;;;11.93;;
51566;SDS011;37657;53.182;5.638;2023-04-06T04:38:17;13.07;;;11.77;;
51566;SDS011;37657;53.182;5.638;2023-04-06T04:40:42;16.05;;;13.55;;
51566;SDS011;37657;53.182;5.638;2023-04-06T04:43:08;12.15;;;11.02;;
51566;SDS011;37657;53.182;5.638;2023-04-06T04:45:34;13.82;;;11.50;;
51566;SDS011;37657;53.182;5.638;2023-04-06T04:47:59;14.05;;;11.50;;
51566;SDS011;37657;53.182;5.638;2023-04-06T04:50:25;14.80;;;11.68;;
51566;SDS011;37657;53.182;5.638;2023-04-06T04:52:51;13.23;;;11.77;;
51566;SDS011;37657;53.182;5.638;2023-04-06T04:55:16;15.15;;;12.23;;
51566;SDS011;37657;53.182;5.638;2023-04-06T04:57:42;14.15;;;12.75;;
51566;SDS011;37657;53.182;5.638;2023-04-06T05:00:08;13.55;;;12.13;;
51566;SDS011;37657;53.182;5.638;2023-04-06T05:02:34;11.63;;;10.43;;
51566;SDS011;37657;53.182;5.638;2023-04-06T05:05:00;14.80;;;12.55;;
51566;SDS011;37657;53.182;5.638;2023-04-06T05:07:26;14.00;;;12.45;;
51566;SDS011;37657;53.182;5.638;2023-04-06T05:09:51;12.30;;;10.32;;
51566;SDS011;37657;53.182;5.638;2023-04-06T05:12:18;13.85;;;12.48;;
51566;SDS011;37657;53.182;5.638;2023-04-06T05:14:44;16.15;;;13.30;;
51566;SDS011;37657;53.182;5.638;2023-04-06T05:17:09;22.55;;;13.88;;
51566;SDS011;37657;53.182;5.638;2023-04-06T05:19:35;14.02;;;10.80;;
51566;SDS011;37657;53.182;5.638;2023-04-06T05:22:00;13.90;;;11.95;;
51566;SDS011;37657;53.182;5.638;2023-04-06T05:24:26;12.73;;;11.52;;
51566;SDS011;37657;53.182;5.638;2023-04-06T05:26:51;15.27;;;13.52;;
51566;SDS011;37657;53.182;5.638;2023-04-06T05:29:18;12.63;;;11.30;;
51566;SDS011;37657;53.182;5.638;2023-04-06T05:31:45;14.88;;;13.18;;
51566;SDS011;37657;53.182;5.638;2023-04-06T05:34:10;13.02;;;11.82;;
51566;SDS011;37657;53.182;5.638;2023-04-06T05:36:37;15.85;;;14.25;;
51566;SDS011;37657;53.182;5.638;2023-04-06T05:39:03;13.20;;;11.63;;
51566;SDS011;37657;53.182;5.638;2023-04-06T05:41:28;13.40;;;12.20;;
51566;SDS011;37657;53.182;5.638;2023-04-06T05:43:54;14.90;;;12.75;;
51566;SDS011;37657;53.182;5.638;2023-04-06T05:46:20;17.33;;;13.80;;
51566;SDS011;37657;53.182;5.638;2023-04-06T05:48:45;12.23;;;11.02;;
51566;SDS011;37657;53.182;5.638;2023-04-06T05:51:11;14.98;;;13.43;;
51566;SDS011;37657;53.182;5.638;2023-04-06T05:53:37;14.68;;;12.77;;
51566;SDS011;37657;53.182;5.638;2023-04-06T05:56:03;18.77;;;14.60;;
51566;SDS011;37657;53.182;5.638;2023-04-06T05:58:29;13.40;;;12.23;;
51566;SDS011;37657;53.182;5.638;2023-04-06T06:00:58;11.00;;;10.10;;
51566;SDS011;37657;53.182;5.638;2023-04-06T06:03:24;14.90;;;13.48;;
51566;SDS011;37657;53.182;5.638;2023-04-06T06:05:49;14.13;;;12.75;;
51566;SDS011;37657;53.182;5.638;2023-04-06T06:08:15;16.08;;;14.10;;
51566;SDS011;37657;53.182;5.638;2023-04-06T06:10:41;13.20;;;11.90;;
51566;SDS011;37657;53.182;5.638;2023-04-06T06:13:06;15.48;;;13.93;;
51566;SDS011;37657;53.182;5.638;2023-04-06T06:15:32;14.55;;;12.32;;
51566;SDS011;37657;53.182;5.638;2023-04-06T06:17:57;13.45;;;12.15;;
51566;SDS011;37657;53.182;5.638;2023-04-06T06:20:23;14.38;;;12.68;;
51566;SDS011;37657;53.182;5.638;2023-04-06T06:22:49;15.15;;;13.52;;
51566;SDS011;37657;53.182;5.638;2023-04-06T06:25:14;15.75;;;14.15;;
51566;SDS011;37657;53.182;5.638;2023-04-06T06:27:40;15.30;;;11.90;;
51566;SDS011;37657;53.182;5.638;2023-04-06T06:30:06;16.60;;;14.35;;
51566;SDS011;37657;53.182;5.638;2023-04-06T06:32:32;13.98;;;12.52;;
51566;SDS011;37657;53.182;5.638;2023-04-06T06:34:58;13.32;;;12.00;;
51566;SDS011;37657;53.182;5.638;2023-04-06T06:37:24;16.60;;;14.82;;
51566;SDS011;37657;53.182;5.638;2023-04-06T06:39:49;16.70;;;14.88;;
51566;SDS011;37657;53.182;5.638;2023-04-06T06:42:15;21.58;;;12.38;;
51566;SDS011;37657;53.182;5.638;2023-04-06T06:44:40;18.40;;;13.93;;
51566;SDS011;37657;53.182;5.638;2023-04-06T06:47:06;16.75;;;14.07;;
51566;SDS011;37657;53.182;5.638;2023-04-06T06:49:31;15.82;;;14.27;;
51566;SDS011;37657;53.182;5.638;2023-04-06T06:51:57;13.20;;;11.82;;
51566;SDS011;37657;53.182;5.638;2023-04-06T06:54:22;20.13;;;15.93;;
51566;SDS011;37657;53.182;5.638;2023-04-06T06:56:48;19.38;;;13.52;;
51566;SDS011;37657;53.182;5.638;2023-04-06T06:59:13;15.80;;;12.82;;
51566;SDS011;37657;53.182;5.638;2023-04-06T07:01:40;16.23;;;14.70;;
51566;SDS011;37657;53.182;5.638;2023-04-06T07:04:06;13.00;;;11.63;;
51566;SDS011;37657;53.182;5.638;2023-04-06T07:06:34;17.27;;;14.02;;
51566;SDS011;37657;53.182;5.638;2023-04-06T07:09:01;14.15;;;12.80;;
51566;SDS011;37657;53.182;5.638;2023-04-06T07:11:28;16.52;;;13.60;;
51566;SDS011;37657;53.182;5.638;2023-04-06T07:13:54;16.52;;;14.73;;
51566;SDS011;37657;53.182;5.638;2023-04-06T07:16:20;16.08;;;12.77;;
51566;SDS011;37657;53.182;5.638;2023-04-06T07:18:45;18.83;;;13.73;;
51566;SDS011;37657;53.182;5.638;2023-04-06T07:21:11;19.20;;;13.43;;
51566;SDS011;37657;53.182;5.638;2023-04-06T07:23:37;14.82;;;13.30;;
51566;SDS011;37657;53.182;5.638;2023-04-06T07:26:02;14.20;;;12.70;;
51566;SDS011;37657;53.182;5.638;2023-04-06T07:28:28;16.42;;;14.18;;
51566;SDS011;37657;53.182;5.638;2023-04-06T07:30:53;13.30;;;11.93;;
51566;SDS011;37657;53.182;5.638;2023-04-06T07:33:19;15.13;;;13.55;;
51566;SDS011;37657;53.182;5.638;2023-04-06T07:35:45;16.70;;;14.98;;
51566;SDS011;37657;53.182;5.638;2023-04-06T07:38:11;16.08;;;14.27;;
51566;SDS011;37657;53.182;5.638;2023-04-06T07:40:36;15.93;;;13.65;;
51566;SDS011;37657;53.182;5.638;2023-04-06T07:43:02;15.48;;;13.88;;
51566;SDS011;37657;53.182;5.638;2023-04-06T07:45:28;17.75;;;13.15;;
51566;SDS011;37657;53.182;5.638;2023-04-06T07:47:54;19.67;;;14.85;;
51566;SDS011;37657;53.182;5.638;2023-04-06T07:50:20;20.65;;;14.15;;
51566;SDS011;37657;53.182;5.638;2023-04-06T07:52:46;18.25;;;16.00;;
51566;SDS011;37657;53.182;5.638;2023-04-06T07:55:11;25.02;;;15.35;;
51566;SDS011;37657;53.182;5.638;2023-04-06T07:57:37;21.30;;;17.20;;
51566;SDS011;37657;53.182;5.638;2023-04-06T08:00:03;18.88;;;16.27;;
51566;SDS011;37657;53.182;5.638;2023-04-06T08:02:29;19.40;;;14.93;;
51566;SDS011;37657;53.182;5.638;2023-04-06T08:04:56;18.42;;;14.52;;
51566;SDS011;37657;53.182;5.638;2023-04-06T08:07:22;18.80;;;15.82;;
51566;SDS011;37657;53.182;5.638;2023-04-06T08:09:47;17.45;;;14.85;;
51566;SDS011;37657;53.182;5.638;2023-04-06T08:12:13;18.60;;;15.48;;
51566;SDS011;37657;53.182;5.638;2023-04-06T08:14:39;19.90;;;14.88;;
51566;SDS011;37657;53.182;5.638;2023-04-06T08:17:05;18.85;;;15.00;;
51566;SDS011;37657;53.182;5.638;2023-04-06T08:19:30;24.27;;;17.90;;
51566;SDS011;37657;53.182;5.638;2023-04-06T08:21:56;19.17;;;15.60;;
51566;SDS011;37657;53.182;5.638;2023-04-06T08:24:21;20.92;;;16.40;;
51566;SDS011;37657;53.182;5.638;2023-04-06T08:26:47;20.80;;;15.85;;
51566;SDS011;37657;53.182;5.638;2023-04-06T08:29:12;17.10;;;14.88;;
51566;SDS011;37657;53.182;5.638;2023-04-06T08:31:38;19.55;;;16.15;;
51566;SDS011;37657;53.182;5.638;2023-04-06T08:34:04;25.67;;;18.10;;
51566;SDS011;37657;53.182;5.638;2023-04-06T08:36:30;16.30;;;14.77;;
51566;SDS011;37657;53.182;5.638;2023-04-06T08:38:56;18.02;;;15.93;;
51566;SDS011;37657;53.182;5.638;2023-04-06T08:41:21;19.33;;;16.83;;
51566;SDS011;37657;53.182;5.638;2023-04-06T08:43:57;17.63;;;15.63;;
51566;SDS011;37657;53.182;5.638;2023-04-06T08:46:24;18.88;;;16.85;;
51566;SDS011;37657;53.182;5.638;2023-04-06T08:49:00;27.55;;;18.20;;
51566;SDS011;37657;53.182;5.638;2023-04-06T08:51:27;21.17;;;18.63;;
51566;SDS011;37657;53.182;5.638;2023-04-06T08:53:56;20.77;;;18.63;;
51566;SDS011;37657;53.182;5.638;2023-04-06T08:56:23;24.90;;;18.90;;
51566;SDS011;37657;53.182;5.638;2023-04-06T08:58:49;22.00;;;19.70;;
51566;SDS011;37657;53.182;5.638;2023-04-06T09:01:16;17.75;;;15.98;;
51566;SDS011;37657;53.182;5.638;2023-04-06T09:03:45;18.33;;;16.27;;
51566;SDS011;37657;53.182;5.638;2023-04-06T09:06:13;21.90;;;17.83;;
51566;SDS011;37657;53.182;5.638;2023-04-06T09:08:39;19.38;;;17.38;;
51566;SDS011;37657;53.182;5.638;2023-04-06T09:11:05;26.20;;;21.42;;
51566;SDS011;37657;53.182;5.638;2023-04-06T09:13:31;23.88;;;21.42;;
51566;SDS011;37657;53.182;5.638;2023-04-06T09:16:11;20.10;;;17.35;;
51566;SDS011;37657;53.182;5.638;2023-04-06T09:18:37;24.73;;;21.67;;
51566;SDS011;37657;53.182;5.638;2023-04-06T09:21:04;27.08;;;19.90;;
51566;SDS011;37657;53.182;5.638;2023-04-06T09:23:30;25.65;;;20.90;;
51566;SDS011;37657;53.182;5.638;2023-04-06T09:26:30;23.10;;;19.25;;
51566;SDS011;37657;53.182;5.638;2023-04-06T09:28:58;26.55;;;20.85;;
51566;SDS011;37657;53.182;5.638;2023-04-06T09:31:30;27.42;;;22.73;;
51566;SDS011;37657;53.182;5.638;2023-04-06T09:33:59;25.77;;;21.42;;
51566;SDS011;37657;53.182;5.638;2023-04-06T09:36:32;25.95;;;22.23;;
51566;SDS011;37657;53.182;5.638;2023-04-06T09:39:01;21.63;;;18.15;;
51566;SDS011;37657;53.182;5.638;2023-04-06T09:41:28;24.63;;;19.80;;
51566;SDS011;37657;53.182;5.638;2023-04-06T09:44:05;30.90;;;20.67;;
51566;SDS011;37657;53.182;5.638;2023-04-06T09:46:32;25.63;;;20.98;;
51566;SDS011;37657;53.182;5.638;2023-04-06T09:49:04;20.77;;;18.13;;
51566;SDS011;37657;53.182;5.638;2023-04-06T09:51:31;28.20;;;22.08;;
51566;SDS011;37657;53.182;5.638;2023-04-06T09:54:10;25.70;;;21.42;;
51566;SDS011;37657;53.182;5.638;2023-04-06T09:57:25;23.48;;;18.90;;
51566;SDS011;37657;53.182;5.638;2023-04-06T09:59:36;23.63;;;18.95;;
51566;SDS011;37657;53.182;5.638;2023-04-06T10:02:17;23.05;;;20.70;;
51566;SDS011;37657;53.182;5.638;2023-04-06T10:05:13;23.30;;;20.45;;
51566;SDS011;37657;53.182;5.638;2023-04-06T10:07:44;37.00;;;22.67;;
51566;SDS011;37657;53.182;5.638;2023-04-06T10:10:11;31.67;;;23.45;;
51566;SDS011;37657;53.182;5.638;2023-04-06T10:12:39;26.30;;;20.85;;
51566;SDS011;37657;53.182;5.638;2023-04-06T10:15:05;23.52;;;19.88;;
51566;SDS011;37657;53.182;5.638;2023-04-06T10:17:32;34.65;;;22.02;;
51566;SDS011;37657;53.182;5.638;2023-04-06T10:20:07;24.45;;;19.88;;
51566;SDS011;37657;53.182;5.638;2023-04-06T10:22:44;22.63;;;17.55;;
51566;SDS011;37657;53.182;5.638;2023-04-06T10:25:31;21.38;;;19.05;;
51566;SDS011;37657;53.182;5.638;2023-04-06T10:28:09;24.00;;;20.77;;
51566;SDS011;37657;53.182;5.638;2023-04-06T10:30:41;22.92;;;20.58;;
51566;SDS011;37657;53.182;5.638;2023-04-06T10:33:17;20.33;;;18.38;;
51566;SDS011;37657;53.182;5.638;2023-04-06T10:35:44;30.73;;;22.58;;
51566;SDS011;37657;53.182;5.638;2023-04-06T10:38:11;20.88;;;18.67;;
51566;SDS011;37657;53.182;5.638;2023-04-06T10:40:39;21.88;;;19.55;;
51566;SDS011;37657;53.182;5.638;2023-04-06T10:43:10;22.27;;;18.65;;
51566;SDS011;37657;53.182;5.638;2023-04-06T10:45:43;26.23;;;20.38;;
51566;SDS011;37657;53.182;5.638;2023-04-06T10:48:16;23.42;;;20.88;;
51566;SDS011;37657;53.182;5.638;2023-04-06T10:50:49;23.98;;;19.00;;
51566;SDS011;37657;53.182;5.638;2023-04-06T10:53:22;30.50;;;23.10;;
51566;SDS011;37657;53.182;5.638;2023-04-06T10:55:49;25.55;;;21.60;;
51566;SDS011;37657;53.182;5.638;2023-04-06T10:58:16;23.23;;;20.88;;
51566;SDS011;37657;53.182;5.638;2023-04-06T11:00:45;31.50;;;23.90;;
51566;SDS011;37657;53.182;5.638;2023-04-06T11:03:12;26.83;;;21.65;;
51566;SDS011;37657;53.182;5.638;2023-04-06T11:05:38;30.15;;;22.67;;
51566;SDS011;37657;53.182;5.638;2023-04-06T11:08:08;24.92;;;20.75;;
51566;SDS011;37657;53.182;5.638;2023-04-06T11:10:34;34.22;;;23.88;;
51566;SDS011;37657;53.182;5.638;2023-04-06T11:12:59;30.88;;;23.48;;
51566;SDS011;37657;53.182;5.638;2023-04-06T11:15:25;27.35;;;20.10;;
51566;SDS011;37657;53.182;5.638;2023-04-06T11:17:50;29.67;;;24.02;;
51566;SDS011;37657;53.182;5.638;2023-04-06T11:20:16;26.67;;;22.27;;
51566;SDS011;37657;53.182;5.638;2023-04-06T11:22:48;26.27;;;23.33;;
51566;SDS011;37657;53.182;5.638;2023-04-06T11:25:16;31.23;;;21.67;;
51566;SDS011;37657;53.182;5.638;2023-04-06T11:27:42;35.70;;;23.90;;
51566;SDS011;37657;53.182;5.638;2023-04-06T11:30:08;25.70;;;20.10;;
51566;SDS011;37657;53.182;5.638;2023-04-06T11:32:44;25.13;;;22.48;;
51566;SDS011;37657;53.182;5.638;2023-04-06T11:35:11;23.30;;;20.20;;
51566;SDS011;37657;53.182;5.638;2023-04-06T11:37:50;21.92;;;18.35;;
51566;SDS011;37657;53.182;5.638;2023-04-06T11:40:20;24.60;;;17.08;;
51566;SDS011;37657;53.182;5.638;2023-04-06T11:42:53;28.27;;;18.63;;
51566;SDS011;37657;53.182;5.638;2023-04-06T11:45:22;23.38;;;16.70;;
51566;SDS011;37657;53.182;5.638;2023-04-06T11:47:57;27.30;;;18.90;;
51566;SDS011;37657;53.182;5.638;2023-04-06T11:50:24;22.35;;;16.30;;
51566;SDS011;37657;53.182;5.638;2023-04-06T11:52:57;25.75;;;19.30;;
51566;SDS011;37657;53.182;5.638;2023-04-06T11:55:25;20.23;;;17.88;;
51566;SDS011;37657;53.182;5.638;2023-04-06T11:57:50;17.23;;;13.73;;
51566;SDS011;37657;53.182;5.638;2023-04-06T12:00:16;18.52;;;16.25;;
51566;SDS011;37657;53.182;5.638;2023-04-06T12:02:45;27.25;;;18.58;;
51566;SDS011;37657;53.182;5.638;2023-04-06T12:05:11;19.77;;;17.00;;
51566;SDS011;37657;53.182;5.638;2023-04-06T12:07:37;19.13;;;16.58;;
51566;SDS011;37657;53.182;5.638;2023-04-06T12:10:03;24.40;;;17.55;;
51566;SDS011;37657;53.182;5.638;2023-04-06T12:12:29;24.50;;;18.52;;
51566;SDS011;37657;53.182;5.638;2023-04-06T12:14:56;21.65;;;17.98;;
51566;SDS011;37657;53.182;5.638;2023-04-06T12:17:21;16.58;;;14.45;;
51566;SDS011;37657;53.182;5.638;2023-04-06T12:19:47;23.40;;;17.45;;
51566;SDS011;37657;53.182;5.638;2023-04-06T12:22:13;19.50;;;16.23;;
51566;SDS011;37657;53.182;5.638;2023-04-06T12:24:39;20.95;;;15.93;;
51566;SDS011;37657;53.182;5.638;2023-04-06T12:27:05;30.92;;;14.45;;
51566;SDS011;37657;53.182;5.638;2023-04-06T12:29:30;16.05;;;12.52;;
51566;SDS011;37657;53.182;5.638;2023-04-06T12:31:56;17.65;;;14.40;;
51566;SDS011;37657;53.182;5.638;2023-04-06T12:34:21;18.25;;;14.38;;
51566;SDS011;37657;53.182;5.638;2023-04-06T12:36:47;14.75;;;12.82;;
51566;SDS011;37657;53.182;5.638;2023-04-06T12:39:12;12.63;;;11.40;;
51566;SDS011;37657;53.182;5.638;2023-04-06T12:41:38;13.40;;;11.90;;
51566;SDS011;37657;53.182;5.638;2023-04-06T12:44:06;17.98;;;13.98;;
51566;SDS011;37657;53.182;5.638;2023-04-06T12:46:32;14.15;;;10.68;;
51566;SDS011;37657;53.182;5.638;2023-04-06T12:48:58;14.60;;;9.75;;
51566;SDS011;37657;53.182;5.638;2023-04-06T12:51:24;14.40;;;12.75;;
51566;SDS011;37657;53.182;5.638;2023-04-06T12:53:52;12.40;;;11.20;;
51566;SDS011;37657;53.182;5.638;2023-04-06T12:56:18;14.75;;;13.13;;
51566;SDS011;37657;53.182;5.638;2023-04-06T12:58:46;15.02;;;11.52;;
51566;SDS011;37657;53.182;5.638;2023-04-06T13:01:12;9.13;;;8.07;;
51566;SDS011;37657;53.182;5.638;2023-04-06T13:03:38;14.00;;;10.23;;
51566;SDS011;37657;53.182;5.638;2023-04-06T13:06:04;15.15;;;12.60;;
51566;SDS011;37657;53.182;5.638;2023-04-06T13:08:30;13.80;;;10.45;;
51566;SDS011;37657;53.182;5.638;2023-04-06T13:10:56;14.00;;;10.48;;
51566;SDS011;37657;53.182;5.638;2023-04-06T13:13:25;10.43;;;9.38;;
51566;SDS011;37657;53.182;5.638;2023-04-06T13:15:52;17.92;;;12.13;;
51566;SDS011;37657;53.182;5.638;2023-04-06T13:18:18;14.32;;;10.57;;
51566;SDS011;37657;53.182;5.638;2023-04-06T13:20:46;17.55;;;12.23;;
51566;SDS011;37657;53.182;5.638;2023-04-06T13:23:12;15.13;;;12.23;;
51566;SDS011;37657;53.182;5.638;2023-04-06T13:25:37;16.10;;;12.38;;
51566;SDS011;37657;53.182;5.638;2023-04-06T13:28:03;18.52;;;15.38;;
51566;SDS011;37657;53.182;5.638;2023-04-06T13:30:28;21.02;;;15.98;;
51566;SDS011;37657;53.182;5.638;2023-04-06T13:32:54;18.27;;;14.52;;
51566;SDS011;37657;53.182;5.638;2023-04-06T13:35:20;20.08;;;16.48;;
51566;SDS011;37657;53.182;5.638;2023-04-06T13:37:45;25.80;;;17.50;;
51566;SDS011;37657;53.182;5.638;2023-04-06T13:40:11;18.23;;;15.32;;
51566;SDS011;37657;53.182;5.638;2023-04-06T13:42:36;23.40;;;17.15;;
51566;SDS011;37657;53.182;5.638;2023-04-06T13:45:06;20.10;;;17.88;;
51566;SDS011;37657;53.182;5.638;2023-04-06T13:47:31;21.50;;;16.50;;
51566;SDS011;37657;53.182;5.638;2023-04-06T13:49:57;21.90;;;18.05;;
51566;SDS011;37657;53.182;5.638;2023-04-06T13:52:23;18.63;;;16.85;;
51566;SDS011;37657;53.182;5.638;2023-04-06T13:54:49;21.35;;;17.80;;
51566;SDS011;37657;53.182;5.638;2023-04-06T13:57:15;19.83;;;16.88;;
51566;SDS011;37657;53.182;5.638;2023-04-06T13:59:40;20.05;;;16.40;;
51566;SDS011;37657;53.182;5.638;2023-04-06T14:02:07;21.50;;;17.02;;
51566;SDS011;37657;53.182;5.638;2023-04-06T14:04:34;17.08;;;14.55;;
51566;SDS011;37657;53.182;5.638;2023-04-06T14:07:00;22.30;;;16.42;;
51566;SDS011;37657;53.182;5.638;2023-04-06T14:09:27;24.02;;;18.15;;
51566;SDS011;37657;53.182;5.638;2023-04-06T14:11:53;18.02;;;16.15;;
51566;SDS011;37657;53.182;5.638;2023-04-06T14:14:20;21.45;;;15.60;;
51566;SDS011;37657;53.182;5.638;2023-04-06T14:16:46;16.90;;;13.57;;
51566;SDS011;37657;53.182;5.638;2023-04-06T14:19:12;19.23;;;14.85;;
51566;SDS011;37657;53.182;5.638;2023-04-06T14:21:40;21.13;;;18.23;;